createdAt,value
2023-04-14T00:01:39.576Z,17.75
2023-04-14T00:04:16.129Z,17.74
2023-04-14T00:06:49.821Z,17.78
2023-04-14T00:09:20.343Z,17.81
2023-04-14T00:11:52.142Z,17.84
2023-04-14T00:14:23.590Z,17.85
2023-04-14T00:16:54.023Z,17.92
2023-04-14T00:19:24.439Z,17.91
2023-04-14T00:21:54.908Z,17.91
2023-04-14T00:24:25.432Z,17.97
2023-04-14T00:26:56.553Z,17.94
2023-04-14T00:29:27.825Z,17.92
2023-04-14T00:31:58.550Z,17.92
2023-04-14T00:34:29.394Z,17.93
2023-04-14T00:36:59.794Z,17.93
2023-04-14T00:39:33.183Z,17.96
2023-04-14T00:42:05.258Z,17.94
2023-04-14T00:44:35.717Z,17.95
2023-04-14T00:47:06.486Z,17.99
2023-04-14T00:49:38.780Z,17.99
2023-04-14T00:52:09.927Z,18.02
2023-04-14T00:54:40.523Z,18.03
2023-04-14T00:57:12.589Z,18.05
2023-04-14T00:59:43.582Z,18.09
2023-04-14T01:02:15.208Z,18.09
2023-04-14T01:04:54.099Z,18.11
2023-04-14T01:07:27.072Z,18.16
2023-04-14T01:09:59.718Z,18.17
2023-04-14T01:12:33.209Z,18.19
2023-04-14T01:15:36.072Z,18.20
2023-04-14T01:18:19.011Z,18.22
2023-04-14T01:21:01.105Z,18.24
2023-04-14T01:23:41.264Z,18.25
2023-04-14T01:26:23.114Z,18.28
2023-04-14T01:29:09.822Z,18.30
2023-04-14T01:32:07.332Z,18.31
2023-04-14T01:35:22.264Z,18.33
2023-04-14T01:38:00.100Z,18.37
2023-04-14T01:40:33.163Z,18.37
2023-04-14T01:43:07.911Z,18.37
2023-04-14T01:45:55.293Z,18.37
2023-04-14T01:48:30.294Z,18.41
2023-04-14T01:51:08.931Z,18.44
2023-04-14T01:53:44.894Z,18.47
2023-04-14T01:56:18.799Z,18.49
2023-04-14T01:58:51.339Z,18.55
2023-04-14T02:01:22.400Z,18.61
2023-04-14T02:03:53.508Z,18.63
2023-04-14T02:06:36.608Z,18.67
2023-04-14T02:09:11.960Z,18.70
2023-04-14T02:11:44.802Z,18.67
2023-04-14T02:14:16.303Z,18.65
2023-04-14T02:16:49.770Z,18.67
2023-04-14T02:19:22.630Z,18.67
2023-04-14T02:21:55.304Z,18.65
2023-04-14T02:24:32.809Z,18.67
2023-04-14T02:27:10.510Z,18.68
2023-04-14T02:29:44.798Z,18.71
2023-04-14T02:32:30.669Z,18.71
2023-04-14T02:35:08.595Z,18.72
2023-04-14T02:37:43.869Z,18.73
2023-04-14T02:40:23.901Z,18.76
2023-04-14T02:43:03.063Z,18.74
2023-04-14T02:45:37.836Z,18.76
2023-04-14T02:48:15.203Z,18.77
2023-04-14T02:50:49.718Z,18.80
2023-04-14T02:53:28.281Z,18.80
2023-04-14T02:56:22.457Z,18.79
2023-04-14T02:58:55.531Z,18.83
2023-04-14T03:01:27.935Z,18.85
2023-04-14T03:04:03.532Z,18.85
2023-04-14T03:06:40.919Z,18.83
2023-04-14T03:09:11.862Z,18.88
2023-04-14T03:11:45.561Z,18.85
2023-04-14T03:14:17.923Z,18.84
2023-04-14T03:16:49.322Z,18.91
2023-04-14T03:19:25.837Z,18.91
2023-04-14T03:22:00.319Z,18.90
2023-04-14T03:24:36.348Z,18.88
2023-04-14T03:27:18.553Z,18.86
2023-04-14T03:29:54.922Z,18.88
2023-04-14T03:32:28.625Z,18.89
2023-04-14T03:35:02.851Z,18.90
2023-04-14T03:37:37.904Z,18.89
2023-04-14T03:40:10.995Z,18.91
2023-04-14T03:42:47.862Z,18.90
2023-04-14T03:45:23.400Z,18.91
2023-04-14T03:48:06.158Z,18.96
2023-04-14T03:50:44.312Z,18.97
2023-04-14T03:53:18.482Z,19.02
2023-04-14T03:55:52.479Z,18.98
2023-04-14T03:58:24.377Z,19.00
2023-04-14T04:00:55.852Z,19.02
2023-04-14T04:03:28.243Z,19.04
2023-04-14T04:06:01.539Z,19.02
2023-04-14T04:08:34.739Z,19.04
2023-04-14T04:11:09.496Z,19.05
2023-04-14T04:13:43.542Z,19.07
2023-04-14T04:16:17.181Z,19.07
2023-04-14T04:18:50.821Z,19.08
2023-04-14T04:21:30.846Z,19.08
2023-04-14T04:24:04.198Z,19.12
2023-04-14T04:26:36.747Z,19.12
2023-04-14T04:29:07.758Z,19.13
2023-04-14T04:31:38.725Z,19.13
2023-04-14T04:34:10.575Z,19.13
2023-04-14T04:36:43.410Z,19.14
2023-04-14T04:39:13.926Z,19.12
2023-04-14T04:41:45.949Z,19.08
2023-04-14T04:44:16.415Z,19.08
2023-04-14T04:46:53.004Z,19.08
2023-04-14T04:49:27.343Z,19.07
2023-04-14T04:52:04.193Z,19.07
2023-04-14T04:54:34.721Z,19.08
2023-04-14T04:57:05.227Z,19.08
2023-04-14T04:59:37.855Z,19.07
2023-04-14T05:02:09.287Z,19.07
2023-04-14T05:04:39.957Z,19.08
2023-04-14T05:07:10.369Z,19.10
2023-04-14T05:09:40.781Z,19.09
2023-04-14T05:12:11.113Z,19.08
2023-04-14T05:14:41.536Z,19.09
2023-04-14T05:17:12.053Z,19.11
2023-04-14T05:19:43.391Z,19.11
2023-04-14T05:22:14.549Z,19.10
2023-04-14T05:24:53.833Z,19.11
2023-04-14T05:27:24.332Z,19.12
2023-04-14T05:29:55.497Z,19.14
2023-04-14T05:32:28.352Z,19.13
2023-04-14T05:34:59.329Z,19.18
2023-04-14T05:37:31.430Z,19.14
2023-04-14T05:40:01.995Z,19.17
2023-04-14T05:42:32.521Z,19.18
2023-04-14T05:45:03.486Z,19.18
2023-04-14T05:47:34.637Z,19.19
2023-04-14T05:50:05.776Z,19.19
2023-04-14T05:52:36.143Z,19.22
2023-04-14T05:55:06.749Z,19.22
2023-04-14T05:57:37.359Z,19.22
2023-04-14T06:00:10.034Z,19.22
2023-04-14T06:02:44.147Z,19.22
2023-04-14T06:05:15.658Z,19.23
2023-04-14T06:07:46.269Z,19.25
2023-04-14T06:10:17.792Z,19.25
2023-04-14T06:12:48.197Z,19.26
2023-04-14T06:15:19.476Z,19.28
2023-04-14T06:17:49.937Z,19.29
2023-04-14T06:20:21.372Z,19.26
2023-04-14T06:22:52.006Z,19.22
2023-04-14T06:25:23.077Z,19.25
2023-04-14T06:27:53.487Z,19.26
2023-04-14T06:30:23.958Z,19.26
2023-04-14T06:32:55.571Z,19.27
2023-04-14T06:35:32.980Z,19.26
2023-04-14T06:38:05.022Z,19.26
2023-04-14T06:40:35.706Z,19.25
2023-04-14T06:43:06.157Z,19.25
2023-04-14T06:45:36.553Z,19.26
2023-04-14T06:48:07.595Z,19.25
2023-04-14T06:50:38.105Z,19.26
2023-04-14T06:53:10.674Z,19.25
2023-04-14T06:55:43.860Z,19.25
2023-04-14T06:58:14.216Z,19.25
2023-04-14T07:00:44.605Z,19.25
2023-04-14T07:03:16.492Z,19.24
2023-04-14T07:05:46.956Z,19.25
2023-04-14T07:08:21.770Z,19.23
2023-04-14T07:10:53.775Z,19.24
2023-04-14T07:13:24.312Z,19.25
2023-04-14T07:15:54.880Z,19.23
2023-04-14T07:18:25.356Z,19.25
2023-04-14T07:20:56.368Z,19.25
2023-04-14T07:23:26.810Z,19.23
2023-04-14T07:25:59.386Z,19.25
2023-04-14T07:28:30.696Z,19.23
2023-04-14T07:31:01.791Z,19.25
2023-04-14T07:33:32.685Z,19.23
2023-04-14T07:36:06.311Z,19.22
2023-04-14T07:38:37.048Z,19.22
2023-04-14T07:41:08.714Z,19.22
2023-04-14T07:43:41.493Z,19.22
2023-04-14T07:46:12.243Z,19.22
2023-04-14T07:48:44.179Z,19.22
2023-04-14T07:51:14.616Z,19.21
2023-04-14T07:53:46.488Z,19.22
2023-04-14T07:56:17.635Z,19.21
2023-04-14T07:58:48.027Z,19.20
2023-04-14T08:01:18.616Z,19.20
2023-04-14T08:03:49.976Z,19.20
2023-04-14T08:06:21.405Z,19.18
2023-04-14T08:08:51.832Z,19.20
2023-04-14T08:11:22.478Z,19.19
2023-04-14T08:13:54.434Z,19.18
2023-04-14T08:16:25.298Z,19.19
2023-04-14T08:18:57.864Z,19.19
2023-04-14T08:21:29.301Z,19.19
2023-04-14T08:24:00.008Z,19.19
2023-04-14T08:26:30.468Z,19.18
2023-04-14T08:29:01.181Z,19.18
2023-04-14T08:31:31.949Z,19.19
2023-04-14T08:34:02.517Z,19.19
2023-04-14T08:36:33.015Z,19.17
2023-04-14T08:39:03.571Z,19.18
2023-04-14T08:41:36.756Z,19.18
2023-04-14T08:44:06.982Z,19.16
2023-04-14T08:46:38.448Z,19.17
2023-04-14T08:49:14.425Z,19.17
2023-04-14T08:51:47.846Z,19.16
2023-04-14T08:54:19.807Z,19.17
2023-04-14T08:56:51.255Z,19.15
2023-04-14T08:59:22.970Z,19.16
2023-04-14T09:01:57.374Z,19.15
2023-04-14T09:04:29.223Z,19.14
2023-04-14T09:06:59.889Z,19.14
2023-04-14T09:09:30.544Z,19.14
2023-04-14T09:12:02.735Z,19.14
2023-04-14T09:14:33.929Z,19.14
2023-04-14T09:17:04.793Z,19.13
2023-04-14T09:19:36.817Z,19.14
2023-04-14T09:22:28.096Z,19.12
2023-04-14T09:25:00.003Z,19.13
2023-04-14T09:27:31.339Z,19.12
2023-04-14T09:30:03.876Z,19.13
2023-04-14T09:32:34.614Z,19.12
2023-04-14T09:35:05.295Z,19.11
2023-04-14T09:37:53.533Z,19.11
2023-04-14T09:40:31.481Z,19.11
2023-04-14T09:43:02.799Z,19.11
2023-04-14T09:45:46.363Z,19.10
2023-04-14T09:48:16.836Z,19.10
2023-04-14T09:51:04.722Z,19.09
2023-04-14T09:53:37.168Z,19.09
2023-04-14T09:56:10.241Z,19.09
2023-04-14T09:58:46.028Z,19.09
2023-04-14T10:01:23.174Z,19.08
2023-04-14T10:03:53.743Z,19.08
2023-04-14T10:06:25.995Z,19.08
2023-04-14T10:09:00.509Z,19.07
2023-04-14T10:11:34.991Z,19.07
2023-04-14T10:14:07.602Z,19.07
2023-04-14T10:16:38.772Z,19.07
2023-04-14T10:19:09.943Z,19.07
2023-04-14T10:21:40.419Z,19.06
2023-04-14T10:24:11.239Z,19.05
2023-04-14T10:26:44.270Z,19.05
2023-04-14T10:29:15.092Z,19.05
2023-04-14T10:31:50.550Z,19.04
2023-04-14T10:34:23.499Z,19.03
2023-04-14T10:36:54.011Z,19.03
2023-04-14T10:39:29.108Z,19.03
2023-04-14T10:41:59.499Z,19.02
2023-04-14T10:44:36.339Z,19.02
2023-04-14T10:47:09.645Z,19.01
2023-04-14T10:49:42.907Z,19.01
2023-04-14T10:52:21.159Z,19.01
2023-04-14T10:55:02.577Z,18.99
2023-04-14T10:57:38.801Z,19.01
2023-04-14T11:00:29.373Z,18.98
2023-04-14T11:03:01.397Z,18.98
2023-04-14T11:05:35.968Z,18.98
2023-04-14T11:08:21.554Z,18.97
2023-04-14T11:10:55.509Z,18.96
2023-04-14T11:13:26.134Z,18.97
2023-04-14T11:16:08.398Z,18.95
2023-04-14T11:18:45.802Z,18.96
2023-04-14T11:21:19.164Z,18.95
2023-04-14T11:23:50.616Z,18.95
2023-04-14T11:26:23.904Z,18.95
2023-04-14T11:28:58.166Z,18.94
2023-04-14T11:31:29.547Z,18.94
2023-04-14T11:34:00.818Z,18.94
2023-04-14T11:36:32.950Z,18.94
2023-04-14T11:39:05.582Z,18.94
2023-04-14T11:41:36.773Z,18.93
2023-04-14T11:44:07.375Z,18.92
2023-04-14T11:46:41.067Z,18.92
2023-04-14T11:49:11.496Z,18.91
2023-04-14T11:51:42.765Z,18.92
2023-04-14T11:54:14.599Z,18.91
2023-04-14T11:56:45.815Z,18.91
2023-04-14T11:59:16.774Z,18.90
2023-04-14T12:01:52.964Z,18.91
2023-04-14T12:04:23.941Z,18.91
2023-04-14T12:06:54.857Z,18.90
2023-04-14T12:09:31.973Z,18.89
2023-04-14T12:12:02.353Z,18.90
2023-04-14T12:14:33.090Z,18.89
2023-04-14T12:17:03.794Z,18.89
2023-04-14T12:19:34.286Z,18.88
2023-04-14T12:22:06.524Z,18.88
2023-04-14T12:24:38.159Z,18.88
2023-04-14T12:27:10.814Z,18.88
2023-04-14T12:29:42.317Z,18.88
2023-04-14T12:32:16.957Z,18.87
2023-04-14T12:34:59.411Z,18.87
2023-04-14T12:37:30.910Z,18.86
2023-04-14T12:40:02.902Z,18.85
2023-04-14T12:42:49.784Z,18.85
2023-04-14T12:45:20.374Z,18.85
2023-04-14T12:47:55.993Z,18.85
2023-04-14T12:50:31.894Z,18.85
2023-04-14T12:53:03.145Z,18.84
2023-04-14T12:55:34.507Z,18.84
2023-04-14T12:58:06.230Z,18.84
2023-04-14T13:00:36.748Z,18.84
2023-04-14T13:03:08.018Z,18.84
2023-04-14T13:05:38.390Z,18.84
2023-04-14T13:08:08.791Z,18.84
2023-04-14T13:10:39.916Z,18.83
2023-04-14T13:13:10.401Z,18.82
2023-04-14T13:16:13.953Z,18.81
2023-04-14T13:18:31.160Z,18.81
2023-04-14T13:21:03.664Z,18.80
2023-04-14T13:23:34.607Z,18.80
2023-04-14T13:26:06.338Z,18.80
2023-04-14T13:28:38.072Z,18.80
2023-04-14T13:31:08.934Z,18.79
2023-04-14T13:33:39.340Z,18.79
2023-04-14T13:36:10.144Z,18.80
2023-04-14T13:38:40.571Z,18.79
2023-04-14T13:41:12.252Z,18.79
2023-04-14T13:43:42.440Z,18.79
2023-04-14T13:46:13.134Z,18.78
2023-04-14T13:48:45.697Z,18.78
2023-04-14T13:51:16.231Z,18.78
2023-04-14T13:53:47.782Z,18.77
2023-04-14T13:56:18.515Z,18.76
2023-04-14T13:58:48.744Z,18.75
2023-04-14T14:01:19.028Z,18.75
2023-04-14T14:03:51.588Z,18.75
2023-04-14T14:06:22.059Z,18.75
2023-04-14T14:09:06.973Z,18.74
2023-04-14T14:11:38.180Z,18.72
2023-04-14T14:14:08.854Z,18.74
2023-04-14T14:16:39.323Z,18.74
2023-04-14T14:19:12.531Z,18.73
2023-04-14T14:21:45.513Z,18.72
2023-04-14T14:24:16.107Z,18.72
2023-04-14T14:26:46.299Z,18.71
2023-04-14T14:29:17.098Z,18.71
2023-04-14T14:31:47.736Z,18.71
2023-04-14T14:34:19.509Z,18.71
2023-04-14T14:36:50.017Z,18.70
2023-04-14T14:39:20.684Z,18.70
2023-04-14T14:41:51.961Z,18.69
2023-04-14T14:44:22.294Z,18.69
2023-04-14T14:46:54.181Z,18.69
2023-04-14T14:49:24.756Z,18.67
2023-04-14T14:51:55.877Z,18.67
2023-04-14T14:54:26.291Z,18.68
2023-04-14T14:56:56.435Z,18.68
2023-04-14T14:59:27.933Z,18.66
2023-04-14T15:01:58.529Z,18.65
2023-04-14T15:04:29.843Z,18.67
2023-04-14T15:07:00.101Z,18.65
2023-04-14T15:09:30.488Z,18.65
2023-04-14T15:12:01.882Z,18.64
2023-04-14T15:14:32.836Z,18.64
2023-04-14T15:17:04.022Z,18.65
2023-04-14T15:19:34.551Z,18.63
2023-04-14T15:22:05.156Z,18.63
2023-04-14T15:24:35.375Z,18.63
2023-04-14T15:27:05.722Z,18.63
2023-04-14T15:29:36.855Z,18.62
2023-04-14T15:32:07.329Z,18.61
2023-04-14T15:34:38.078Z,18.62
2023-04-14T15:37:08.536Z,18.61
2023-04-14T15:39:39.353Z,18.61
2023-04-14T15:42:09.719Z,18.61
2023-04-14T15:44:40.080Z,18.60
2023-04-14T15:47:10.494Z,18.60
2023-04-14T15:49:40.874Z,18.59
2023-04-14T15:52:11.370Z,18.58
2023-04-14T15:54:42.210Z,18.59
2023-04-14T15:57:12.821Z,18.59
2023-04-14T15:59:43.213Z,18.59
2023-04-14T16:02:13.927Z,18.58
2023-04-14T16:04:44.596Z,18.57
2023-04-14T16:07:15.264Z,18.57
2023-04-14T16:09:45.665Z,18.56
2023-04-14T16:12:16.829Z,18.56
2023-04-14T16:14:47.792Z,18.55
2023-04-14T16:17:18.938Z,18.56
2023-04-14T16:19:49.549Z,18.56
2023-04-14T16:22:20.917Z,18.55
2023-04-14T16:24:51.440Z,18.55
2023-04-14T16:27:22.044Z,18.54
2023-04-14T16:29:53.606Z,18.54
2023-04-14T16:32:24.056Z,18.53
2023-04-14T16:34:54.614Z,18.52
2023-04-14T16:37:27.472Z,18.53
2023-04-14T16:39:58.450Z,18.53
2023-04-14T16:42:29.030Z,18.53
2023-04-14T16:44:59.788Z,18.52
2023-04-14T16:47:30.336Z,18.51
2023-04-14T16:50:01.135Z,18.51
2023-04-14T16:52:32.613Z,18.50
2023-04-14T16:55:03.407Z,18.51
2023-04-14T16:57:34.190Z,18.49
2023-04-14T17:00:05.030Z,18.50
2023-04-14T17:02:37.157Z,18.50
2023-04-14T17:05:11.652Z,18.48
2023-04-14T17:07:42.678Z,18.49
2023-04-14T17:10:13.643Z,18.48
2023-04-14T17:12:44.533Z,18.47
2023-04-14T17:15:14.971Z,18.47
2023-04-14T17:17:45.374Z,18.46
2023-04-14T17:20:16.920Z,18.46
2023-04-14T17:22:47.556Z,18.47
2023-04-14T17:25:23.918Z,18.46
2023-04-14T17:27:55.284Z,18.46
2023-04-14T17:30:26.153Z,18.45
2023-04-14T17:32:56.926Z,18.45
2023-04-14T17:35:27.924Z,18.46
2023-04-14T17:37:59.268Z,18.44
2023-04-14T17:40:30.168Z,18.45
2023-04-14T17:43:00.575Z,18.44
2023-04-14T17:45:31.318Z,18.44
2023-04-14T17:48:02.083Z,18.44
2023-04-14T17:50:32.628Z,18.42
2023-04-14T17:53:03.359Z,18.43
2023-04-14T17:55:34.567Z,18.42
2023-04-14T17:58:05.251Z,18.42
2023-04-14T18:00:37.161Z,18.40
2023-04-14T18:03:07.794Z,18.40
2023-04-14T18:05:38.855Z,18.41
2023-04-14T18:08:09.380Z,18.40
2023-04-14T18:10:40.758Z,18.39
2023-04-14T18:13:11.632Z,18.38
2023-04-14T18:15:46.012Z,18.38
2023-04-14T18:18:17.128Z,18.38
2023-04-14T18:20:51.579Z,18.38
2023-04-14T18:23:22.029Z,18.37
2023-04-14T18:28:35.833Z,18.35
2023-04-14T18:31:07.114Z,18.36
2023-04-14T18:33:37.976Z,18.36
2023-04-14T18:36:08.658Z,18.34
2023-04-14T18:38:40.118Z,18.35
2023-04-14T18:41:11.781Z,18.34
2023-04-14T18:43:43.280Z,18.33
2023-04-14T18:46:13.729Z,18.34
2023-04-14T18:48:44.744Z,18.32
2023-04-14T18:51:15.074Z,18.32
2023-04-14T18:53:47.086Z,18.31
2023-04-14T18:56:18.009Z,18.30
2023-04-14T18:58:48.989Z,18.31
2023-04-14T19:01:20.270Z,18.31
2023-04-14T19:03:50.802Z,18.30
2023-04-14T19:09:05.649Z,18.30
2023-04-14T19:11:37.627Z,18.29
2023-04-14T19:14:08.154Z,18.29
2023-04-14T19:16:38.778Z,18.29
2023-04-14T19:19:10.053Z,18.27
2023-04-14T19:21:40.666Z,18.28
2023-04-14T19:24:11.860Z,18.27
2023-04-14T19:26:43.072Z,18.27
2023-04-14T19:29:13.377Z,18.26
2023-04-14T19:31:44.320Z,18.26
2023-04-14T19:34:14.800Z,18.26
2023-04-14T19:36:46.413Z,18.26
2023-04-14T19:39:17.619Z,18.25
2023-04-14T19:41:48.819Z,18.25
2023-04-14T19:44:19.179Z,18.24
2023-04-14T19:46:50.090Z,18.25
2023-04-14T19:49:20.708Z,18.23
2023-04-14T19:51:54.257Z,18.19
2023-04-14T19:54:24.637Z,18.19
2023-04-14T19:56:55.710Z,18.19
2023-04-14T19:59:27.006Z,18.17
2023-04-14T20:01:57.762Z,18.16
2023-04-14T20:04:28.757Z,18.15
2023-04-14T20:06:59.284Z,18.17
2023-04-14T20:09:29.661Z,18.16
2023-04-14T20:12:01.909Z,18.16
2023-04-14T20:14:32.358Z,18.16
2023-04-14T20:17:02.822Z,18.17
2023-04-14T20:19:34.518Z,18.15
2023-04-14T20:22:12.803Z,18.16
2023-04-14T20:27:26.284Z,18.14
2023-04-14T20:29:57.086Z,18.14
2023-04-14T20:32:28.246Z,18.13
2023-04-14T20:34:58.646Z,18.13
2023-04-14T20:37:30.551Z,18.14
2023-04-14T20:40:01.086Z,18.13
2023-04-14T20:42:31.894Z,18.11
2023-04-14T20:45:02.419Z,18.11
2023-04-14T20:50:15.821Z,18.11
2023-04-14T20:52:48.007Z,18.09
2023-04-14T20:55:21.020Z,18.10
2023-04-14T20:57:51.518Z,18.07
2023-04-14T21:00:22.424Z,18.05
2023-04-14T21:05:39.135Z,18.02
2023-04-14T21:08:10.955Z,18.00
2023-04-14T21:11:02.259Z,17.99
2023-04-14T21:15:30.284Z,17.99
2023-04-14T21:16:22.352Z,17.99
2023-04-14T21:18:52.964Z,17.98
2023-04-14T21:21:24.148Z,17.98
2023-04-14T21:23:54.564Z,17.97
2023-04-14T21:26:25.372Z,17.97
2023-04-14T21:28:55.816Z,17.99
2023-04-14T21:31:27.129Z,17.99
2023-04-14T21:36:42.380Z,17.98
2023-04-14T21:39:13.303Z,17.98
2023-04-14T21:41:44.594Z,17.95
2023-04-14T21:44:17.119Z,17.96
2023-04-14T21:46:47.575Z,17.95
2023-04-14T21:49:20.603Z,17.96
2023-04-14T21:51:52.964Z,17.96
2023-04-14T21:54:23.288Z,17.96
2023-04-14T21:56:54.649Z,17.95
2023-04-14T21:59:25.135Z,17.96
2023-04-14T22:01:56.295Z,17.96
2023-04-14T22:04:35.951Z,17.99
2023-04-14T22:07:07.932Z,17.96
2023-04-14T22:09:38.393Z,17.98
2023-04-14T22:12:08.905Z,17.95
2023-04-14T22:14:39.344Z,17.96
2023-04-14T22:17:09.922Z,17.96
2023-04-14T22:19:40.355Z,17.96
2023-04-14T22:22:11.218Z,17.95
2023-04-14T22:24:41.554Z,17.95
2023-04-14T22:27:12.114Z,17.95
2023-04-14T22:29:42.739Z,17.95
2023-04-14T22:32:13.358Z,17.94
2023-04-14T22:34:44.207Z,17.94
2023-04-14T22:39:58.396Z,17.95
2023-04-14T22:42:29.526Z,17.95
2023-04-14T22:45:00.017Z,17.94
2023-04-14T22:47:30.444Z,17.94
2023-04-14T22:50:00.979Z,17.95
2023-04-14T22:52:32.294Z,17.93
2023-04-14T22:55:02.998Z,17.93
2023-04-14T22:57:34.754Z,17.94
2023-04-14T23:00:10.415Z,17.93
2023-04-14T23:02:43.764Z,17.93
2023-04-14T23:05:16.356Z,17.93
2023-04-14T23:10:31.148Z,17.93
2023-04-14T23:13:02.012Z,17.94
2023-04-14T23:15:33.292Z,17.94
2023-04-14T23:18:04.714Z,17.94
2023-04-14T23:20:35.182Z,17.94
2023-04-14T23:23:06.264Z,17.94
2023-04-14T23:25:36.629Z,17.93
2023-04-14T23:28:07.623Z,17.93
2023-04-14T23:30:38.476Z,17.93
2023-04-14T23:33:08.820Z,17.93
2023-04-14T23:35:40.862Z,17.94
2023-04-14T23:38:11.188Z,17.94
2023-04-14T23:40:41.805Z,17.95
2023-04-14T23:43:12.151Z,17.95
2023-04-14T23:45:43.745Z,17.94
2023-04-14T23:48:14.409Z,17.96
2023-04-14T23:51:01.644Z,17.96
2023-04-14T23:53:35.602Z,17.95
2023-04-14T23:56:06.780Z,17.94
2023-04-14T23:58:37.208Z,17.95
